Time;durP1;ratioP1;P1;durP2;ratioP2;P2;SDS_P1;SDS_P2;PMS_P1;PMS_P2;Temp;Humidity;BMP_temperature;BMP_pressure;BME280_temperature;BME280_humidity;BME280_pressure;Samples;Min_cycle;Max_cycle;Signal;HPM_P1;HPM_P2
2021/12/02 00:01:44;;;;;;;0.88;0.30;;;;;;;;;;4165980;28;20112;-42
2021/12/02 00:03:47;;;;;;;0.75;0.40;;;;;;;;;;4166275;28;20057;-38
2021/12/02 00:05:48;;;;;;;0.30;0.30;;;;;;;;;;4166099;28;20053;-41
2021/12/02 00:07:51;;;;;;;0.90;0.35;;;;;;;;;;4165366;28;20441;-41
2021/12/02 00:09:52;;;;;;;0.22;0.20;;;;;;;;;;4166083;28;20559;-41
2021/12/02 00:11:53;;;;;;;0.30;0.30;;;;;;;;;;4148472;28;20061;-41
2021/12/02 00:13:57;;;;;;;0.73;0.30;;;;;;;;;;4166025;28;20421;-42
2021/12/02 00:16:23;;;;;;;0.65;0.30;;;;;;;;;;4166051;28;20115;-38
2021/12/02 00:23:24;;;;;;;0.80;0.60;;;;;;;;;;4165305;28;20053;-42
2021/12/02 00:25:26;;;;;;;0.35;0.30;;;;;;;;;;4165977;28;20111;-40
2021/12/02 00:27:30;;;;;;;0.90;0.30;;;;;;;;;;4148181;28;20057;-41
2021/12/02 00:29:32;;;;;;;0.50;0.30;;;;;;;;;;4165515;28;20053;-39
2021/12/02 00:31:35;;;;;;;0.50;0.30;;;;;;;;;;4165960;28;20168;-39
2021/12/02 00:33:39;;;;;;;0.98;0.50;;;;;;;;;;4165475;28;20111;-39
2021/12/02 00:35:40;;;;;;;0.15;0.10;;;;;;;;;;4148109;28;20058;-39
2021/12/02 00:37:42;;;;;;;1.08;0.30;;;;;;;;;;4165068;28;20061;-40
2021/12/02 00:39:43;;;;;;;0.40;0.40;;;;;;;;;;4165447;28;20131;-39
2021/12/02 00:41:44;;;;;;;0.68;0.57;;;;;;;;;;4165719;28;20103;-41
2021/12/02 00:43:48;;;;;;;0.65;0.30;;;;;;;;;;4165550;28;20053;-40
2021/12/02 00:45:49;;;;;;;0.60;0.50;;;;;;;;;;4165523;28;20625;-42
2021/12/02 00:47:50;;;;;;;0.68;0.30;;;;;;;;;;4165577;28;20115;-39
2021/12/02 00:49:51;;;;;;;0.40;0.40;;;;;;;;;;4148119;28;20071;-40
2021/12/02 00:51:54;;;;;;;0.50;0.40;;;;;;;;;;4164219;28;20103;-40
2021/12/02 00:54:00;;;;;;;0.40;0.40;;;;;;;;;;4147192;28;20101;-40
2021/12/02 00:56:03;;;;;;;0.70;0.40;;;;;;;;;;4165318;28;20390;-40
2021/12/02 00:58:05;;;;;;;0.30;0.30;;;;;;;;;;4165291;28;20087;-42
2021/12/02 01:00:07;;;;;;;0.25;0.20;;;;;;;;;;4165415;28;20115;-40
2021/12/02 01:02:10;;;;;;;0.40;0.25;;;;;;;;;;4165397;28;20053;-42
2021/12/02 01:04:13;;;;;;;0.20;0.20;;;;;;;;;;4165045;28;20056;-39
2021/12/02 01:06:14;;;;;;;0.63;0.40;;;;;;;;;;4165299;28;20065;-40
2021/12/02 01:08:15;;;;;;;0.40;0.20;;;;;;;;;;4164562;28;20127;-38
2021/12/02 01:10:16;;;;;;;0.22;0.20;;;;;;;;;;4147813;28;20058;-41
2021/12/02 01:12:18;;;;;;;0.38;0.30;;;;;;;;;;4147343;28;20049;-40
2021/12/02 01:14:19;;;;;;;0.32;0.30;;;;;;;;;;4165039;28;20057;-42
2021/12/02 01:16:21;;;;;;;0.60;0.50;;;;;;;;;;4165078;28;20129;-36
2021/12/02 01:18:23;;;;;;;0.20;0.20;;;;;;;;;;4164389;28;20053;-40
2021/12/02 01:20:24;;;;;;;0.30;0.30;;;;;;;;;;4164864;28;20061;-38
2021/12/02 01:22:28;;;;;;;0.57;0.40;;;;;;;;;;4164850;28;20119;-37
2021/12/02 01:24:30;;;;;;;0.20;0.20;;;;;;;;;;4146851;28;20058;-38
2021/12/02 01:26:34;;;;;;;0.57;0.30;;;;;;;;;;4164738;28;20066;-35
2021/12/02 01:28:37;;;;;;;0.25;0.20;;;;;;;;;;4164631;28;20489;-40
2021/12/02 01:30:38;;;;;;;0.45;0.32;;;;;;;;;;4164855;28;20061;-38
2021/12/02 01:32:40;;;;;;;0.30;0.30;;;;;;;;;;4164741;28;20049;-39
2021/12/02 01:34:44;;;;;;;0.30;0.30;;;;;;;;;;4164707;28;20064;-38
2021/12/02 01:36:45;;;;;;;0.20;0.20;;;;;;;;;;4147443;28;20053;-36
2021/12/02 01:38:46;;;;;;;0.45;0.30;;;;;;;;;;4164053;28;20053;-40
2021/12/02 01:40:47;;;;;;;0.20;0.20;;;;;;;;;;4164857;28;20108;-40
2021/12/02 01:42:55;;;;;;;0.43;0.30;;;;;;;;;;4164545;28;20080;-42
2021/12/02 01:44:58;;;;;;;0.52;0.30;;;;;;;;;;4164875;28;20057;-41
2021/12/02 01:47:00;;;;;;;0.10;0.10;;;;;;;;;;4164454;28;20053;-42
2021/12/02 01:49:06;;;;;;;0.20;0.20;;;;;;;;;;4164595;28;20107;-40
2021/12/02 01:51:10;;;;;;;0.40;0.40;;;;;;;;;;4164587;28;20057;-40
2021/12/02 01:53:15;;;;;;;0.30;0.30;;;;;;;;;;4163955;28;20053;-41
2021/12/02 01:55:17;;;;;;;0.63;0.30;;;;;;;;;;4164491;28;20058;-41
2021/12/02 01:57:29;;;;;;;0.20;0.20;;;;;;;;;;4164323;28;20103;-42
2021/12/02 01:59:34;;;;;;;0.28;0.20;;;;;;;;;;4164398;28;20069;-42
2021/12/02 02:01:36;;;;;;;0.85;0.32;;;;;;;;;;4164305;28;20068;-41
2021/12/02 02:03:38;;;;;;;0.43;0.30;;;;;;;;;;4164571;28;20156;-38
2021/12/02 02:05:40;;;;;;;0.63;0.22;;;;;;;;;;4146859;28;20058;-41
2021/12/02 02:08:06;;;;;;;0.32;0.30;;;;;;;;;;4163963;28;20060;-39
2021/12/02 02:10:07;;;;;;;0.45;0.30;;;;;;;;;;4152672;28;20493;-40
2021/12/02 02:12:11;;;;;;;0.20;0.20;;;;;;;;;;4164373;28;20061;-41
2021/12/02 02:14:12;;;;;;;0.20;0.20;;;;;;;;;;4164180;28;20482;-34
2021/12/02 02:16:13;;;;;;;0.40;0.30;;;;;;;;;;4164248;28;20509;-38
2021/12/02 02:20:22;;;;;;;0.25;0.20;;;;;;;;;;4164252;28;20448;-40
2021/12/02 02:22:24;;;;;;;0.50;0.30;;;;;;;;;;4163083;28;20590;-38
2021/12/02 02:24:26;;;;;;;0.30;0.20;;;;;;;;;;4163592;28;20061;-38
2021/12/02 02:26:34;;;;;;;0.20;0.20;;;;;;;;;;4164178;28;20057;-36
2021/12/02 02:28:35;;;;;;;0.30;0.30;;;;;;;;;;4164098;28;20390;-40
2021/12/02 02:30:36;;;;;;;0.20;0.20;;;;;;;;;;4178973;28;20102;-38
2021/12/02 02:32:38;;;;;;;0.52;0.30;;;;;;;;;;4200699;28;20060;-39
2021/12/02 02:34:39;;;;;;;0.20;0.20;;;;;;;;;;4200563;28;20401;-35
2021/12/02 02:36:50;;;;;;;0.30;0.13;;;;;;;;;;4200572;28;20067;-35
2021/12/02 02:38:56;;;;;;;0.25;0.20;;;;;;;;;;4200168;28;20048;-39
2021/12/02 02:41:00;;;;;;;0.40;0.30;;;;;;;;;;4200478;28;20056;-40
2021/12/02 02:43:07;;;;;;;0.20;0.20;;;;;;;;;;4191229;28;20045;-37
2021/12/02 02:45:09;;;;;;;0.30;0.25;;;;;;;;;;4181642;28;20048;-40
2021/12/02 02:47:10;;;;;;;0.20;0.20;;;;;;;;;;4183832;28;20072;-36
2021/12/02 02:49:13;;;;;;;0.40;0.28;;;;;;;;;;4183929;28;20053;-39
2021/12/02 02:51:14;;;;;;;0.20;0.20;;;;;;;;;;4183645;28;20068;-38
2021/12/02 02:53:21;;;;;;;0.20;0.20;;;;;;;;;;4165708;28;20064;-38
2021/12/02 02:55:24;;;;;;;0.13;0.13;;;;;;;;;;4183709;28;20057;-39
2021/12/02 02:57:28;;;;;;;0.20;0.20;;;;;;;;;;4166294;28;20422;-40
2021/12/02 03:02:28;;;;;;;0.45;0.20;;;;;;;;;;4148700;28;20093;-38
2021/12/02 03:08:51;;;;;;;0.57;0.40;;;;;;;;;;4182908;28;20060;-39
2021/12/02 03:10:57;;;;;;;0.30;0.22;;;;;;;;;;4183729;28;20060;-41
2021/12/02 03:13:21;;;;;;;0.10;0.10;;;;;;;;;;4183360;28;20053;-39
2021/12/02 03:17:24;;;;;;;0.40;0.25;;;;;;;;;;4183283;28;20489;-42
2021/12/02 03:19:27;;;;;;;1.75;0.20;;;;;;;;;;4183192;28;20057;-41
2021/12/02 03:21:29;;;;;;;0.17;0.17;;;;;;;;;;4183262;28;20056;-39
2021/12/02 03:23:30;;;;;;;0.20;0.20;;;;;;;;;;4182493;28;20071;-36
2021/12/02 03:25:32;;;;;;;0.20;0.17;;;;;;;;;;4183273;28;20378;-41
2021/12/02 03:27:34;;;;;;;0.20;0.20;;;;;;;;;;4183167;28;20060;-41
2021/12/02 03:29:36;;;;;;;0.10;0.10;;;;;;;;;;4183101;28;20489;-42
2021/12/02 03:31:37;;;;;;;0.13;0.13;;;;;;;;;;4183074;28;20060;-37
2021/12/02 03:33:38;;;;;;;0.30;0.30;;;;;;;;;;4183116;28;20057;-40
2021/12/02 03:35:39;;;;;;;0.93;0.30;;;;;;;;;;4165592;28;20054;-39
2021/12/02 03:37:40;;;;;;;0.22;0.20;;;;;;;;;;4182341;28;20390;-37
2021/12/02 03:39:41;;;;;;;0.10;0.10;;;;;;;;;;4175568;28;20069;-40
2021/12/02 03:41:43;;;;;;;0.20;0.20;;;;;;;;;;4165970;28;20062;-41
2021/12/02 03:43:47;;;;;;;0.10;0.10;;;;;;;;;;4166356;28;20485;-42
2021/12/02 03:45:48;;;;;;;0.30;0.30;;;;;;;;;;4166437;28;20395;-37
2021/12/02 03:47:50;;;;;;;0.20;0.20;;;;;;;;;;4166277;28;20397;-39
2021/12/02 03:49:51;;;;;;;0.10;0.10;;;;;;;;;;4166353;28;20053;-37
2021/12/02 03:51:52;;;;;;;0.38;0.20;;;;;;;;;;4166102;28;20078;-42
2021/12/02 03:53:53;;;;;;;0.10;0.10;;;;;;;;;;4165714;28;20555;-41
2021/12/02 03:55:55;;;;;;;0.17;0.10;;;;;;;;;;4166321;28;20494;-41
2021/12/02 03:57:56;;;;;;;0.25;0.25;;;;;;;;;;4166117;28;20058;-39
2021/12/02 03:59:57;;;;;;;0.40;0.20;;;;;;;;;;4166255;28;20061;-38
2021/12/02 04:02:00;;;;;;;0.15;0.15;;;;;;;;;;4166264;28;20054;-40
2021/12/02 04:04:01;;;;;;;0.52;0.20;;;;;;;;;;4166255;28;20061;-40
2021/12/02 04:06:02;;;;;;;0.40;0.25;;;;;;;;;;4166066;28;20050;-42
2021/12/02 04:08:04;;;;;;;0.30;0.30;;;;;;;;;;4165417;28;20068;-42
2021/12/02 04:10:05;;;;;;;0.30;0.30;;;;;;;;;;4166330;28;20061;-39
2021/12/02 04:12:13;;;;;;;0.30;0.30;;;;;;;;;;4166256;28;20045;-42
2021/12/02 04:16:58;;;;;;;0.13;0.10;;;;;;;;;;4164044;28;20108;-39
2021/12/02 04:18:59;;;;;;;0.10;0.10;;;;;;;;;;4164097;28;20111;-41
2021/12/02 04:21:01;;;;;;;0.50;0.20;;;;;;;;;;4164020;28;20061;-42
2021/12/02 04:23:02;;;;;;;0.10;0.10;;;;;;;;;;4163764;28;20061;-39
2021/12/02 04:25:04;;;;;;;0.25;0.25;;;;;;;;;;4182335;28;20057;-38
2021/12/02 04:27:05;;;;;;;0.10;0.10;;;;;;;;;;4164542;28;20065;-41
2021/12/02 04:29:07;;;;;;;0.20;0.20;;;;;;;;;;4182333;28;20061;-39
2021/12/02 04:31:08;;;;;;;0.20;0.20;;;;;;;;;;4164581;28;20514;-41
2021/12/02 04:33:09;;;;;;;0.20;0.20;;;;;;;;;;4182312;28;20095;-42
2021/12/02 04:35:11;;;;;;;0.35;0.20;;;;;;;;;;4182023;28;20504;-37
2021/12/02 04:37:12;;;;;;;0.10;0.10;;;;;;;;;;4164518;28;20120;-40
2021/12/02 04:39:14;;;;;;;0.10;0.10;;;;;;;;;;4181806;28;20122;-42
2021/12/02 04:41:17;;;;;;;0.20;0.20;;;;;;;;;;4182303;28;20053;-40
2021/12/02 04:43:18;;;;;;;0.10;0.10;;;;;;;;;;4181875;28;20486;-42
2021/12/02 04:45:19;;;;;;;0.20;0.20;;;;;;;;;;4182202;28;20061;-41
2021/12/02 04:47:20;;;;;;;0.20;0.20;;;;;;;;;;4164175;28;20123;-38
2021/12/02 04:49:23;;;;;;;0.30;0.20;;;;;;;;;;4181835;28;20107;-42
2021/12/02 04:51:24;;;;;;;0.10;0.10;;;;;;;;;;4181798;28;20497;-41
2021/12/02 04:53:25;;;;;;;0.25;0.10;;;;;;;;;;4162838;28;20061;-40
2021/12/02 04:55:26;;;;;;;0.25;0.13;;;;;;;;;;4181826;28;20064;-39
2021/12/02 04:57:28;;;;;;;0.10;0.10;;;;;;;;;;4181691;28;20064;-42
2021/12/02 04:59:29;;;;;;;0.10;0.10;;;;;;;;;;4181876;28;20501;-40
2021/12/02 05:01:31;;;;;;;0.30;0.20;;;;;;;;;;4181751;28;20056;-39
2021/12/02 05:03:32;;;;;;;0.55;0.20;;;;;;;;;;4181755;28;20102;-39
2021/12/02 05:05:33;;;;;;;0.30;0.10;;;;;;;;;;4181515;28;20057;-37
2021/12/02 05:07:35;;;;;;;0.20;0.20;;;;;;;;;;4163725;28;20053;-39
2021/12/02 05:09:36;;;;;;;0.20;0.10;;;;;;;;;;4181700;28;20481;-41
2021/12/02 05:11:40;;;;;;;0.10;0.10;;;;;;;;;;4181464;28;20052;-37
2021/12/02 05:13:41;;;;;;;0.10;0.10;;;;;;;;;;4181337;28;20110;-39
2021/12/02 05:15:42;;;;;;;0.10;0.10;;;;;;;;;;4181495;28;20111;-38
2021/12/02 05:17:43;;;;;;;0.32;0.20;;;;;;;;;;4181275;28;20412;-40
2021/12/02 05:19:44;;;;;;;0.20;0.20;;;;;;;;;;4181360;28;20102;-40
2021/12/02 05:21:46;;;;;;;0.13;0.10;;;;;;;;;;4181327;28;20053;-42
2021/12/02 05:23:52;;;;;;;0.10;0.10;;;;;;;;;;4169794;28;20061;-37
2021/12/02 05:25:54;;;;;;;0.30;0.20;;;;;;;;;;4163639;28;20522;-40
2021/12/02 05:27:55;;;;;;;0.10;0.10;;;;;;;;;;4164928;28;20107;-41
2021/12/02 05:29:56;;;;;;;0.20;0.20;;;;;;;;;;4165020;28;20056;-39
2021/12/02 05:31:58;;;;;;;0.45;0.20;;;;;;;;;;4164699;28;20061;-42
2021/12/02 05:33:59;;;;;;;0.10;0.10;;;;;;;;;;4164518;28;20057;-42
2021/12/02 05:36:00;;;;;;;0.20;0.20;;;;;;;;;;4164994;28;20486;-41
2021/12/02 05:38:01;;;;;;;0.10;0.10;;;;;;;;;;4164064;28;20068;-38
2021/12/02 05:40:03;;;;;;;0.75;0.20;;;;;;;;;;4147368;28;20058;-41
2021/12/02 05:42:04;;;;;;;0.30;0.22;;;;;;;;;;4164459;28;20053;-42
2021/12/02 05:44:05;;;;;;;0.10;0.10;;;;;;;;;;4164468;28;20061;-42
2021/12/02 05:46:07;;;;;;;0.50;0.20;;;;;;;;;;4164892;28;20103;-41
2021/12/02 05:48:08;;;;;;;0.20;0.20;;;;;;;;;;4164435;28;20053;-40
2021/12/02 05:50:09;;;;;;;0.20;0.20;;;;;;;;;;4164537;28;20493;-40
2021/12/02 05:52:10;;;;;;;0.10;0.10;;;;;;;;;;4164683;28;20090;-40
2021/12/02 05:54:11;;;;;;;0.60;0.20;;;;;;;;;;4164035;28;20390;-39
2021/12/02 05:56:12;;;;;;;0.10;0.10;;;;;;;;;;4164572;28;20402;-42
2021/12/02 05:58:14;;;;;;;0.20;0.10;;;;;;;;;;4164284;28;20057;-41
2021/12/02 06:00:15;;;;;;;3.10;0.20;;;;;;;;;;4164698;28;20053;-40
2021/12/02 06:02:17;;;;;;;0.30;0.10;;;;;;;;;;4164355;28;20049;-40
2021/12/02 06:04:18;;;;;;;0.05;0.05;;;;;;;;;;4163887;28;20103;-41
2021/12/02 06:06:22;;;;;;;0.47;0.22;;;;;;;;;;4147093;28;20057;-40
2021/12/02 06:08:24;;;;;;;0.28;0.20;;;;;;;;;;4163981;28;20054;-41
2021/12/02 06:10:25;;;;;;;0.20;0.10;;;;;;;;;;4164592;28;20057;-38
2021/12/02 06:12:26;;;;;;;0.20;0.10;;;;;;;;;;4164432;28;20069;-40
2021/12/02 06:14:27;;;;;;;0.20;0.10;;;;;;;;;;4164001;28;20532;-37
2021/12/02 06:16:29;;;;;;;0.90;0.17;;;;;;;;;;4164450;28;20057;-39
2021/12/02 06:18:30;;;;;;;0.63;0.15;;;;;;;;;;4164182;28;20061;-40
2021/12/02 06:20:31;;;;;;;0.20;0.13;;;;;;;;;;4164114;28;20111;-38
2021/12/02 06:22:33;;;;;;;0.00;0.00;;;;;;;;;;4165085;28;20119;-40
2021/12/02 06:26:55;;;;;;;0.10;0.10;;;;;;;;;;4180546;28;20127;-41
2021/12/02 06:28:57;;;;;;;0.47;0.13;;;;;;;;;;4188549;28;20060;-40
2021/12/02 06:31:01;;;;;;;0.10;0.10;;;;;;;;;;4187752;28;20129;-42
2021/12/02 06:33:03;;;;;;;0.20;0.20;;;;;;;;;;4179135;28;20045;-39
2021/12/02 06:35:04;;;;;;;0.15;0.15;;;;;;;;;;4173093;28;20142;-40
2021/12/02 06:37:06;;;;;;;0.10;0.10;;;;;;;;;;4179994;28;20056;-40
2021/12/02 06:39:07;;;;;;;0.00;0.00;;;;;;;;;;4184429;28;20056;-36
2021/12/02 06:41:09;;;;;;;0.17;0.10;;;;;;;;;;4188408;28;20083;-39
2021/12/02 06:43:10;;;;;;;0.40;0.15;;;;;;;;;;4179948;28;20048;-41
2021/12/02 06:45:12;;;;;;;0.50;0.30;;;;;;;;;;4178409;28;20057;-40
2021/12/02 06:47:13;;;;;;;0.30;0.13;;;;;;;;;;4169016;28;20062;-36
2021/12/02 06:49:14;;;;;;;1.20;0.17;;;;;;;;;;4176057;28;20049;-41
2021/12/02 06:51:18;;;;;;;0.10;0.10;;;;;;;;;;4171413;28;20183;-38
2021/12/02 06:53:19;;;;;;;0.65;0.20;;;;;;;;;;4168954;28;20049;-41
2021/12/02 06:55:21;;;;;;;0.95;0.20;;;;;;;;;;4170982;28;20056;-40
2021/12/02 06:57:22;;;;;;;0.10;0.10;;;;;;;;;;4166775;28;20445;-39
2021/12/02 06:59:24;;;;;;;0.28;0.28;;;;;;;;;;4175184;28;20057;-42
2021/12/02 07:01:25;;;;;;;0.10;0.10;;;;;;;;;;4176623;28;20464;-41
2021/12/02 07:03:26;;;;;;;0.30;0.22;;;;;;;;;;4170848;28;20072;-40
2021/12/02 07:05:29;;;;;;;0.77;0.10;;;;;;;;;;4185127;28;20057;-41
2021/12/02 07:07:34;;;;;;;0.43;0.20;;;;;;;;;;4156875;28;20147;-38
2021/12/02 07:09:36;;;;;;;0.50;0.20;;;;;;;;;;4178112;28;20080;-38
2021/12/02 07:11:37;;;;;;;0.57;0.28;;;;;;;;;;4178117;28;20057;-39
2021/12/02 07:13:40;;;;;;;0.30;0.10;;;;;;;;;;4153573;28;21065;-40
2021/12/02 07:15:44;;;;;;;0.45;0.30;;;;;;;;;;4168154;28;20056;-39
2021/12/02 07:17:49;;;;;;;0.55;0.20;;;;;;;;;;4165944;28;20052;-40
2021/12/02 07:19:51;;;;;;;0.55;0.28;;;;;;;;;;4171874;28;20057;-41
2021/12/02 07:21:52;;;;;;;0.40;0.10;;;;;;;;;;4139525;28;20050;-40
2021/12/02 07:23:53;;;;;;;0.17;0.10;;;;;;;;;;4163639;28;20130;-39
2021/12/02 07:25:57;;;;;;;0.35;0.20;;;;;;;;;;4173266;28;20505;-41
2021/12/02 07:27:59;;;;;;;0.60;0.20;;;;;;;;;;4167778;28;20057;-39
2021/12/02 07:30:00;;;;;;;0.50;0.25;;;;;;;;;;4164291;28;20091;-39
2021/12/02 07:32:03;;;;;;;0.40;0.20;;;;;;;;;;4168548;28;20052;-40
2021/12/02 07:34:04;;;;;;;1.33;0.50;;;;;;;;;;4148017;28;20069;-42
2021/12/02 07:36:06;;;;;;;0.17;0.13;;;;;;;;;;4170434;28;22040;-39
2021/12/02 07:38:07;;;;;;;0.57;0.20;;;;;;;;;;4167582;28;20098;-41
2021/12/02 07:40:09;;;;;;;0.65;0.38;;;;;;;;;;4172788;28;20571;-37
2021/12/02 07:42:10;;;;;;;0.45;0.15;;;;;;;;;;4169209;28;20110;-40
2021/12/02 07:44:11;;;;;;;1.05;0.28;;;;;;;;;;4169399;28;20255;-42
2021/12/02 07:46:13;;;;;;;0.32;0.28;;;;;;;;;;4165691;28;20463;-38
2021/12/02 07:48:14;;;;;;;0.75;0.20;;;;;;;;;;4173684;28;20442;-40
2021/12/02 07:50:17;;;;;;;0.93;0.30;;;;;;;;;;4146286;28;20054;-42
2021/12/02 07:52:21;;;;;;;0.15;0.15;;;;;;;;;;4172354;28;20061;-40
2021/12/02 07:54:22;;;;;;;0.77;0.30;;;;;;;;;;4151390;28;20049;-38
2021/12/02 07:56:23;;;;;;;0.22;0.20;;;;;;;;;;4170803;28;20050;-39
2021/12/02 07:58:24;;;;;;;0.28;0.20;;;;;;;;;;4163096;28;20053;-38
2021/12/02 08:00:27;;;;;;;0.55;0.28;;;;;;;;;;4166569;28;20073;-41
2021/12/02 08:02:33;;;;;;;1.00;0.30;;;;;;;;;;4167818;28;20115;-40
2021/12/02 08:04:34;;;;;;;0.25;0.25;;;;;;;;;;4171300;28;20056;-35
2021/12/02 08:06:35;;;;;;;0.30;0.20;;;;;;;;;;4157877;28;20053;-41
2021/12/02 08:08:37;;;;;;;0.40;0.20;;;;;;;;;;4140442;28;20477;-40
2021/12/02 08:10:38;;;;;;;0.40;0.20;;;;;;;;;;4171027;28;20061;-40
2021/12/02 08:12:45;;;;;;;0.68;0.20;;;;;;;;;;4168066;28;20075;-39
2021/12/02 08:14:46;;;;;;;0.30;0.30;;;;;;;;;;4168816;28;20053;-38
2021/12/02 08:16:47;;;;;;;0.95;0.38;;;;;;;;;;4157672;28;20072;-40
2021/12/02 08:18:49;;;;;;;2.25;0.22;;;;;;;;;;4171808;28;20060;-41
2021/12/02 08:20:50;;;;;;;0.40;0.28;;;;;;;;;;4165982;28;20049;-37
2021/12/02 08:22:52;;;;;;;0.70;0.40;;;;;;;;;;4161160;28;20448;-39
2021/12/02 08:24:53;;;;;;;0.75;0.38;;;;;;;;;;4159611;28;20494;-40
2021/12/02 08:26:54;;;;;;;0.45;0.25;;;;;;;;;;4163492;28;20056;-38
2021/12/02 08:28:55;;;;;;;2.78;0.55;;;;;;;;;;4161581;28;20068;-40
2021/12/02 08:30:58;;;;;;;0.57;0.50;;;;;;;;;;4163422;28;20061;-41
2021/12/02 08:33:00;;;;;;;0.63;0.25;;;;;;;;;;4168843;28;20049;-38
2021/12/02 08:35:01;;;;;;;0.90;0.47;;;;;;;;;;4166141;28;20053;-40
2021/12/02 08:37:02;;;;;;;0.95;0.45;;;;;;;;;;4168986;28;20064;-42
2021/12/02 08:39:06;;;;;;;1.25;0.60;;;;;;;;;;4168691;28;20057;-41
2021/12/02 08:41:10;;;;;;;1.58;0.60;;;;;;;;;;4166020;28;20089;-36
2021/12/02 08:43:12;;;;;;;1.52;0.60;;;;;;;;;;4169965;28;20061;-38
2021/12/02 08:45:14;;;;;;;1.35;0.57;;;;;;;;;;4169255;28;20057;-41
2021/12/02 08:47:16;;;;;;;1.00;0.50;;;;;;;;;;4155025;28;20389;-41
2021/12/02 08:49:19;;;;;;;1.65;0.63;;;;;;;;;;4168301;28;20149;-39
2021/12/02 08:51:21;;;;;;;1.23;0.60;;;;;;;;;;4165172;28;20159;-39
2021/12/02 08:53:22;;;;;;;1.75;0.73;;;;;;;;;;4167597;28;20105;-40
2021/12/02 08:55:24;;;;;;;1.25;0.82;;;;;;;;;;4160131;28;20063;-40
2021/12/02 08:57:25;;;;;;;2.17;1.00;;;;;;;;;;4163983;28;20488;-42
2021/12/02 08:59:26;;;;;;;4.40;1.20;;;;;;;;;;4167575;28;20140;-41
2021/12/02 09:01:28;;;;;;;3.50;0.88;;;;;;;;;;4165457;28;20755;-38
2021/12/02 09:03:30;;;;;;;2.75;0.85;;;;;;;;;;4166109;28;20057;-40
2021/12/02 09:05:31;;;;;;;1.63;0.85;;;;;;;;;;4166262;28;20477;-40
2021/12/02 09:07:32;;;;;;;2.03;0.85;;;;;;;;;;4151664;28;20107;-43
2021/12/02 09:09:34;;;;;;;2.10;1.10;;;;;;;;;;4163824;28;20172;-40
2021/12/02 09:11:35;;;;;;;2.42;1.00;;;;;;;;;;4164145;28;20048;-39
2021/12/02 09:13:37;;;;;;;3.28;1.20;;;;;;;;;;4170892;28;20061;-40
2021/12/02 09:15:38;;;;;;;1.92;1.17;;;;;;;;;;4166880;28;20102;-41
2021/12/02 09:17:40;;;;;;;2.38;0.98;;;;;;;;;;4167338;28;20081;-41
2021/12/02 09:19:41;;;;;;;1.98;1.20;;;;;;;;;;4170001;28;20053;-40
2021/12/02 09:21:42;;;;;;;3.95;1.17;;;;;;;;;;4169210;28;20057;-39
2021/12/02 09:23:43;;;;;;;2.38;1.17;;;;;;;;;;4168850;28;20497;-41
2021/12/02 09:25:44;;;;;;;2.83;1.27;;;;;;;;;;4153034;28;20191;-40
2021/12/02 09:27:45;;;;;;;2.75;1.33;;;;;;;;;;4166379;28;20063;-40
2021/12/02 09:29:47;;;;;;;3.90;1.50;;;;;;;;;;4162853;28;21455;-38
2021/12/02 09:31:49;;;;;;;2.45;1.20;;;;;;;;;;4161305;28;20107;-37
2021/12/02 09:33:51;;;;;;;4.43;1.10;;;;;;;;;;4167084;28;20107;-38
2021/12/02 09:35:52;;;;;;;2.20;1.10;;;;;;;;;;4169185;28;20076;-40
2021/12/02 09:37:54;;;;;;;3.17;1.30;;;;;;;;;;4160201;28;20065;-38
2021/12/02 09:39:56;;;;;;;3.92;1.50;;;;;;;;;;4169863;28;20859;-38
2021/12/02 09:41:58;;;;;;;1.88;1.00;;;;;;;;;;4160575;28;20045;-38
2021/12/02 09:43:59;;;;;;;6.43;1.60;;;;;;;;;;4162417;28;20045;-41
2021/12/02 09:46:01;;;;;;;3.55;1.48;;;;;;;;;;4166443;28;20061;-39
2021/12/02 09:48:02;;;;;;;4.75;1.63;;;;;;;;;;4157999;28;20060;-40
2021/12/02 09:50:09;;;;;;;2.25;1.15;;;;;;;;;;4162997;28;20108;-39
2021/12/02 09:52:13;;;;;;;4.60;1.63;;;;;;;;;;4155882;28;20103;-39
2021/12/02 09:54:22;;;;;;;2.92;1.50;;;;;;;;;;4149203;28;20114;-39
2021/12/02 09:56:30;;;;;;;3.25;1.80;;;;;;;;;;4160164;28;20061;-39
2021/12/02 09:58:31;;;;;;;3.70;1.50;;;;;;;;;;4161580;28;20168;-40
2021/12/02 10:02:43;;;;;;;4.28;1.85;;;;;;;;;;4160638;28;20052;-42
2021/12/02 10:04:53;;;;;;;3.85;1.38;;;;;;;;;;4160474;28;20782;-39
2021/12/02 10:07:36;;;;;;;7.53;1.55;;;;;;;;;;4163616;28;20685;-40
2021/12/02 10:09:44;;;;;;;4.30;1.80;;;;;;;;;;4168407;28;20503;-40
2021/12/02 10:13:59;;;;;;;2.47;1.10;;;;;;;;;;4165510;28;20085;-36
2021/12/02 10:16:05;;;;;;;3.55;1.50;;;;;;;;;;4161981;28;20068;-37
2021/12/02 10:18:14;;;;;;;2.85;1.23;;;;;;;;;;4163649;28;20143;-41
2021/12/02 10:22:23;;;;;;;8.95;1.35;;;;;;;;;;4165198;28;20512;-36
2021/12/02 10:24:27;;;;;;;3.58;1.10;;;;;;;;;;4154914;28;20262;-39
2021/12/02 10:26:28;;;;;;;2.78;1.60;;;;;;;;;;4153935;28;20053;-41
2021/12/02 10:28:42;;;;;;;1.90;1.35;;;;;;;;;;4151345;28;20119;-37
2021/12/02 10:30:47;;;;;;;6.95;1.65;;;;;;;;;;4136491;28;20553;-40
2021/12/02 10:32:51;;;;;;;2.75;1.50;;;;;;;;;;4147620;28;20060;-34
2021/12/02 10:34:54;;;;;;;4.85;1.52;;;;;;;;;;4143326;28;20411;-39
2021/12/02 10:37:09;;;;;;;3.20;1.67;;;;;;;;;;4150603;28;20471;-39
2021/12/02 10:39:16;;;;;;;3.40;1.58;;;;;;;;;;4151809;28;20449;-41
2021/12/02 10:41:21;;;;;;;3.60;1.75;;;;;;;;;;4150930;28;20057;-41
2021/12/02 10:43:22;;;;;;;2.53;1.60;;;;;;;;;;4151644;28;20428;-39
2021/12/02 10:45:30;;;;;;;2.75;1.70;;;;;;;;;;4155397;28;20100;-37
2021/12/02 10:47:33;;;;;;;3.30;1.63;;;;;;;;;;4149743;28;20088;-39
2021/12/02 10:49:39;;;;;;;4.00;1.90;;;;;;;;;;4133164;28;20070;-38
2021/12/02 10:51:51;;;;;;;3.13;1.80;;;;;;;;;;4155861;28;20065;-41
2021/12/02 10:54:04;;;;;;;5.05;1.85;;;;;;;;;;4155934;28;20049;-44
2021/12/02 10:56:10;;;;;;;2.75;2.03;;;;;;;;;;4151978;28;20510;-41
2021/12/02 10:58:11;;;;;;;3.33;1.80;;;;;;;;;;4157546;28;20062;-43
2021/12/02 11:00:14;;;;;;;5.35;1.88;;;;;;;;;;4153041;28;20104;-41
2021/12/02 11:02:17;;;;;;;3.40;1.88;;;;;;;;;;4153086;28;20065;-39
2021/12/02 11:04:20;;;;;;;3.42;1.50;;;;;;;;;;4156648;28;20052;-40
2021/12/02 11:07:01;;;;;;;3.28;1.58;;;;;;;;;;4152377;28;20085;-42
2021/12/02 11:09:02;;;;;;;4.03;2.10;;;;;;;;;;4094630;28;20055;-41
2021/12/02 11:11:21;;;;;;;4.32;1.85;;;;;;;;;;4077951;29;20100;-41
2021/12/02 11:13:26;;;;;;;3.88;1.88;;;;;;;;;;4099517;28;20047;-38
2021/12/02 11:15:28;;;;;;;4.38;2.35;;;;;;;;;;4151156;28;20515;-40
2021/12/02 11:17:33;;;;;;;5.13;2.00;;;;;;;;;;4151793;28;20104;-39
2021/12/02 11:19:34;;;;;;;3.67;1.73;;;;;;;;;;4148164;28;20383;-40
2021/12/02 11:21:36;;;;;;;4.68;2.00;;;;;;;;;;4151146;28;20053;-38
2021/12/02 11:23:45;;;;;;;3.85;1.60;;;;;;;;;;4157512;28;20083;-39
2021/12/02 11:25:49;;;;;;;3.50;1.90;;;;;;;;;;4171601;28;20060;-40
2021/12/02 11:27:51;;;;;;;3.17;1.67;;;;;;;;;;4168639;28;20166;-39
2021/12/02 11:30:02;;;;;;;3.83;1.95;;;;;;;;;;4168347;28;20073;-37
2021/12/02 11:32:03;;;;;;;3.88;2.03;;;;;;;;;;4167868;28;20049;-39
2021/12/02 11:34:10;;;;;;;3.47;1.83;;;;;;;;;;4159639;28;20077;-39
2021/12/02 11:36:22;;;;;;;3.42;1.90;;;;;;;;;;4149525;28;20053;-40
2021/12/02 11:38:27;;;;;;;4.10;1.70;;;;;;;;;;4162715;28;20049;-38
2021/12/02 11:40:31;;;;;;;3.80;1.75;;;;;;;;;;4168392;28;20049;-38
2021/12/02 11:42:34;;;;;;;3.22;1.88;;;;;;;;;;4153079;28;20540;-40
2021/12/02 11:44:35;;;;;;;4.30;1.80;;;;;;;;;;4171254;28;20115;-39
2021/12/02 11:46:36;;;;;;;3.85;1.70;;;;;;;;;;4172063;28;20119;-39
2021/12/02 11:48:41;;;;;;;3.28;1.73;;;;;;;;;;4163116;28;20385;-39
2021/12/02 11:50:43;;;;;;;4.90;1.65;;;;;;;;;;4164958;28;20064;-41
2021/12/02 11:52:45;;;;;;;4.63;1.65;;;;;;;;;;4167556;28;20053;-40
2021/12/02 11:54:46;;;;;;;3.90;1.58;;;;;;;;;;4163521;28;21981;-38
2021/12/02 11:56:47;;;;;;;4.43;1.88;;;;;;;;;;4156694;28;20901;-39
2021/12/02 11:58:50;;;;;;;4.13;1.90;;;;;;;;;;4166734;28;20106;-41
2021/12/02 12:00:52;;;;;;;3.20;1.67;;;;;;;;;;4163048;28;20466;-40
2021/12/02 12:02:59;;;;;;;4.68;1.70;;;;;;;;;;4155769;28;20052;-38
2021/12/02 12:05:03;;;;;;;3.92;1.50;;;;;;;;;;4168045;28;20083;-41
2021/12/02 12:07:12;;;;;;;3.55;1.27;;;;;;;;;;4171543;28;20061;-40
2021/12/02 12:09:17;;;;;;;3.50;1.23;;;;;;;;;;4169012;28;20056;-39
2021/12/02 12:11:29;;;;;;;4.88;2.15;;;;;;;;;;4167292;28;20494;-38
2021/12/02 12:13:31;;;;;;;5.72;1.83;;;;;;;;;;4164463;28;20048;-39
2021/12/02 12:15:34;;;;;;;5.80;1.70;;;;;;;;;;4167724;28;20049;-42
2021/12/02 12:17:39;;;;;;;3.67;1.73;;;;;;;;;;4167325;28;20056;-35
2021/12/02 12:19:47;;;;;;;4.25;1.65;;;;;;;;;;4169798;28;20060;-37
2021/12/02 12:21:56;;;;;;;5.80;2.22;;;;;;;;;;4165218;28;20099;-38
2021/12/02 12:24:01;;;;;;;4.70;1.98;;;;;;;;;;4169274;28;20049;-39
2021/12/02 12:26:19;;;;;;;5.20;1.42;;;;;;;;;;4149101;28;20076;-41
2021/12/02 12:28:20;;;;;;;5.90;1.83;;;;;;;;;;4164238;28;20060;-40
2021/12/02 12:30:25;;;;;;;3.80;1.80;;;;;;;;;;4164891;28;20099;-41
2021/12/02 12:33:19;;;;;;;3.28;1.40;;;;;;;;;;4168568;28;20061;-40
2021/12/02 12:35:03;;;;;;;4.20;1.30;;;;;;;;;;4164244;28;20638;-37
2021/12/02 12:37:21;;;;;;;4.43;1.83;;;;;;;;;;4150215;28;20088;-39
2021/12/02 12:39:24;;;;;;;4.72;1.63;;;;;;;;;;4144360;28;20057;-37
2021/12/02 12:41:25;;;;;;;4.68;1.60;;;;;;;;;;4164438;28;20103;-40
2021/12/02 12:43:33;;;;;;;2.80;1.30;;;;;;;;;;4165767;28;20113;-39
2021/12/02 12:45:39;;;;;;;3.40;1.48;;;;;;;;;;4165695;28;20105;-38
2021/12/02 12:47:40;;;;;;;1.85;1.13;;;;;;;;;;4166219;28;20353;-36